Terminal Aerodrome Forecast
Issued by NWS Denver/Boulder, CO

Home | Current Version | Previous Version | Text Only | Print | Product List | Glossary On
Versions: 1 2 3 4 5 6 7 8 9 10 11 12 13 14 15 16 17 18 19 20 21 22 23 24 25 26 27 28 29 30 31 32 33 34 35 36 37 38 39 40 41 42 43 44 45 46 47 48 49 50
000
FTUS45 KBOU 280809 AAA
TAFDEN
TAF AMD
KDEN 280809Z 2808/2912 24007KT P6SM BKN080
     FM280930 33007KT P6SM SCT080 BKN110
     FM281200 25007KT P6SM FEW100 SCT150
     FM281500 33005KT P6SM SCT200
     FM281800 01010KT P6SM FEW080
     FM282100 02011KT P6SM SCT090 BKN180
     FM290100 33006KT P6SM FEW090 BKN180
     FM290300 22010KT P6SM SCT200=

USA.gov is the U.S. government's official web portal to all federal, state and local government web resources and services.